Time;durP1;ratioP1;P1;durP2;ratioP2;P2;SDS_P1;SDS_P2;PMS_P1;PMS_P2;Temp;Humidity;BMP_temperature;BMP_pressure;BME280_temperature;BME280_humidity;BME280_pressure;Samples;Min_cycle;Max_cycle;Signal;HPM_P1;HPM_P2
2022/08/20 00:00:39;;;;;;;;;;;19.10;95.40;;;;;;5034504;28;19913;-73
2022/08/20 00:03:07;;;;;;;;;;;19.00;95.70;;;;;;5034729;28;19927;-74
2022/08/20 00:05:35;;;;;;;;;;;18.90;96.00;;;;;;5034305;28;19917;-73
2022/08/20 00:08:02;;;;;;;;;;;19.00;95.90;;;;;;5034981;28;19916;-73
2022/08/20 00:10:29;;;;;;;;;;;19.00;95.90;;;;;;5034849;28;19913;-74
2022/08/20 00:12:55;;;;;;;;;;;18.90;96.10;;;;;;5034672;28;19936;-73
2022/08/20 00:15:24;;;;;;;;;;;18.80;96.40;;;;;;5034643;28;19913;-73
2022/08/20 00:17:51;;;;;;;;;;;18.80;96.70;;;;;;5034028;28;19914;-73
2022/08/20 00:20:18;;;;;;;;;;;18.80;96.90;;;;;;5034853;28;19913;-73
2022/08/20 00:22:44;;;;;;;;;;;18.80;97.70;;;;;;5034208;28;19927;-73
2022/08/20 00:25:11;;;;;;;;;;;18.80;98.00;;;;;;5034555;28;19917;-73
2022/08/20 00:27:37;;;;;;;;;;;18.90;97.50;;;;;;5034095;28;19916;-73
2022/08/20 00:30:06;;;;;;;;;;;18.90;97.30;;;;;;5034078;28;19936;-73
2022/08/20 00:32:41;;;;;;;;;;;18.90;97.30;;;;;;5034780;28;19913;-73
2022/08/20 00:35:08;;;;;;;;;;;18.90;97.00;;;;;;5034521;28;19913;-73
2022/08/20 00:37:34;;;;;;;;;;;18.90;96.90;;;;;;5033719;28;19913;-74
2022/08/20 00:40:00;;;;;;;;;;;18.90;97.10;;;;;;5034615;28;19913;-74
2022/08/20 00:42:26;;;;;;;;;;;18.90;96.70;;;;;;5034510;28;19928;-73
2022/08/20 00:44:52;;;;;;;;;;;18.90;96.90;;;;;;5033575;28;20286;-73
2022/08/20 00:47:19;;;;;;;;;;;18.80;97.20;;;;;;5034038;28;19919;-74
2022/08/20 00:49:45;;;;;;;;;;;18.70;97.40;;;;;;5033698;28;19917;-73
2022/08/20 00:52:13;;;;;;;;;;;18.70;97.90;;;;;;5034186;28;20008;-73
2022/08/20 00:54:43;;;;;;;;;;;18.60;98.00;;;;;;5033593;28;20369;-73
2022/08/20 00:57:30;;;;;;;;;;;18.60;98.60;;;;;;5034124;28;19920;-73
2022/08/20 00:59:57;;;;;;;;;;;18.60;98.80;;;;;;5026384;28;19913;-73
2022/08/20 01:02:26;;;;;;;;;;;18.70;98.60;;;;;;5033973;28;19973;-73
2022/08/20 01:04:55;;;;;;;;;;;18.70;98.60;;;;;;5033115;28;19918;-73
2022/08/20 01:07:30;;;;;;;;;;;18.70;98.70;;;;;;5033659;28;19935;-73
2022/08/20 01:09:57;;;;;;;;;;;18.70;98.80;;;;;;5033212;28;19936;-73
2022/08/20 01:12:23;;;;;;;;;;;18.70;99.00;;;;;;5031893;28;19921;-73
2022/08/20 01:14:50;;;;;;;;;;;18.70;98.90;;;;;;5032764;28;19932;-74
2022/08/20 01:17:18;;;;;;;;;;;18.70;99.00;;;;;;5033616;28;19913;-73
2022/08/20 01:19:50;;;;;;;;;;;18.60;99.20;;;;;;5032812;28;19940;-73
2022/08/20 01:25:08;;;;;;;;;;;18.50;99.60;;;;;;5033561;28;19917;-73
2022/08/20 01:27:35;;;;;;;;;;;18.50;99.90;;;;;;5033780;28;19921;-73
2022/08/20 01:30:02;;;;;;;;;;;18.50;99.90;;;;;;5033056;28;19936;-73
2022/08/20 01:32:28;;;;;;;;;;;18.50;99.90;;;;;;5033357;28;19917;-73
2022/08/20 01:34:54;;;;;;;;;;;18.50;99.90;;;;;;5032796;28;20002;-73
2022/08/20 01:37:20;;;;;;;;;;;18.40;99.90;;;;;;5033305;28;19913;-73
2022/08/20 01:39:46;;;;;;;;;;;18.50;99.90;;;;;;5032804;28;20357;-73
2022/08/20 01:42:26;;;;;;;;;;;18.50;99.90;;;;;;5032058;28;20015;-73
2022/08/20 01:44:52;;;;;;;;;;;18.60;99.90;;;;;;5032383;28;19921;-73
2022/08/20 01:47:20;;;;;;;;;;;18.60;99.90;;;;;;5033070;28;19913;-73
2022/08/20 01:49:50;;;;;;;;;;;18.70;99.90;;;;;;5030904;28;19913;-73
2022/08/20 01:52:21;;;;;;;;;;;18.70;99.90;;;;;;5032825;28;19917;-73
2022/08/20 01:54:47;;;;;;;;;;;18.70;99.90;;;;;;5032341;28;20277;-73
2022/08/20 01:57:17;;;;;;;;;;;18.70;99.90;;;;;;5033042;28;19920;-73
2022/08/20 01:59:43;;;;;;;;;;;18.70;99.90;;;;;;5031585;28;19913;-73
2022/08/20 02:02:11;;;;;;;;;;;18.70;99.90;;;;;;5031017;28;20362;-73
2022/08/20 02:04:39;;;;;;;;;;;18.70;99.90;;;;;;5032600;28;20350;-73
2022/08/20 02:07:07;;;;;;;;;;;18.80;99.90;;;;;;5032430;28;19913;-73
2022/08/20 02:09:35;;;;;;;;;;;18.90;99.90;;;;;;5031260;28;20284;-73
2022/08/20 02:12:02;;;;;;;;;;;18.90;99.90;;;;;;5031883;28;20267;-73
2022/08/20 02:14:29;;;;;;;;;;;19.00;99.90;;;;;;5032616;28;19917;-73
2022/08/20 02:16:57;;;;;;;;;;;19.00;99.90;;;;;;5031976;28;19917;-73
2022/08/20 02:19:26;;;;;;;;;;;19.00;99.90;;;;;;5032546;28;19909;-73
2022/08/20 02:21:54;;;;;;;;;;;19.00;99.90;;;;;;5031702;28;19917;-73
2022/08/20 02:24:20;;;;;;;;;;;19.10;99.90;;;;;;5032667;28;19913;-73
2022/08/20 02:26:46;;;;;;;;;;;19.00;99.90;;;;;;5030593;28;20255;-73
2022/08/20 02:29:12;;;;;;;;;;;19.00;99.90;;;;;;5032654;28;19909;-73
2022/08/20 02:31:40;;;;;;;;;;;19.00;99.90;;;;;;5032373;28;19920;-73
2022/08/20 02:34:08;;;;;;;;;;;19.00;99.90;;;;;;5031589;28;19913;-73
2022/08/20 02:36:36;;;;;;;;;;;19.00;99.90;;;;;;5032296;28;19913;-73
2022/08/20 02:39:06;;;;;;;;;;;19.10;99.90;;;;;;5031776;28;19913;-73
2022/08/20 02:41:33;;;;;;;;;;;19.10;99.90;;;;;;5032014;28;20408;-73
2022/08/20 02:43:59;;;;;;;;;;;19.10;99.90;;;;;;5031747;28;19925;-73
2022/08/20 02:46:27;;;;;;;;;;;19.20;99.90;;;;;;5032138;28;19917;-73
2022/08/20 02:48:53;;;;;;;;;;;19.10;99.90;;;;;;5031563;28;20342;-73
2022/08/20 02:51:20;;;;;;;;;;;19.20;99.90;;;;;;5032193;28;19968;-73
2022/08/20 02:53:46;;;;;;;;;;;19.20;99.90;;;;;;5033837;28;19913;-73
2022/08/20 02:56:12;;;;;;;;;;;19.20;99.90;;;;;;5036543;28;20370;-73
2022/08/20 02:58:39;;;;;;;;;;;19.20;99.90;;;;;;5036244;28;19920;-73
2022/08/20 03:01:06;;;;;;;;;;;19.20;99.90;;;;;;5035439;28;20378;-73
2022/08/20 03:03:33;;;;;;;;;;;19.30;99.90;;;;;;5035929;28;19917;-73
2022/08/20 03:05:59;;;;;;;;;;;19.30;99.90;;;;;;5035421;28;19917;-73
2022/08/20 03:08:26;;;;;;;;;;;19.30;99.90;;;;;;5036346;28;20315;-73
2022/08/20 03:10:52;;;;;;;;;;;19.30;99.90;;;;;;5035200;28;19914;-73
2022/08/20 03:13:19;;;;;;;;;;;19.40;99.90;;;;;;5035689;28;19925;-73
2022/08/20 03:15:46;;;;;;;;;;;19.40;99.90;;;;;;5035180;28;19913;-74
2022/08/20 03:18:13;;;;;;;;;;;19.40;99.90;;;;;;5036133;28;20374;-73
2022/08/20 03:20:39;;;;;;;;;;;19.40;99.90;;;;;;5035943;28;19917;-73
2022/08/20 03:23:05;;;;;;;;;;;19.40;99.90;;;;;;5035248;28;19921;-73
2022/08/20 03:25:32;;;;;;;;;;;19.40;99.90;;;;;;5035625;28;19924;-73
2022/08/20 03:27:58;;;;;;;;;;;19.50;99.90;;;;;;5034986;28;19913;-73
2022/08/20 03:30:25;;;;;;;;;;;19.60;99.90;;;;;;5036050;28;19909;-73
2022/08/20 03:32:51;;;;;;;;;;;19.60;99.90;;;;;;5034929;28;19913;-73
2022/08/20 03:35:19;;;;;;;;;;;19.70;99.90;;;;;;5035857;28;19924;-73
2022/08/20 03:37:45;;;;;;;;;;;19.70;99.90;;;;;;5035173;28;19917;-73
2022/08/20 03:40:14;;;;;;;;;;;19.70;99.90;;;;;;5035261;28;19913;-73
2022/08/20 03:42:40;;;;;;;;;;;19.70;99.90;;;;;;5035700;28;19917;-73
2022/08/20 03:45:07;;;;;;;;;;;19.60;99.90;;;;;;5034658;28;20286;-73
2022/08/20 03:47:33;;;;;;;;;;;19.70;99.90;;;;;;5035321;28;19913;-74
2022/08/20 03:50:00;;;;;;;;;;;19.70;99.90;;;;;;5034625;28;19936;-74
2022/08/20 03:52:28;;;;;;;;;;;19.70;99.90;;;;;;5035421;28;20266;-74
2022/08/20 03:54:54;;;;;;;;;;;19.70;99.90;;;;;;5034524;28;19932;-74
2022/08/20 03:57:20;;;;;;;;;;;19.70;99.90;;;;;;5035427;28;19920;-71
2022/08/20 03:59:46;;;;;;;;;;;19.60;99.90;;;;;;5034396;28;19909;-72
2022/08/20 04:02:12;;;;;;;;;;;19.60;99.90;;;;;;5034868;28;19917;-73
2022/08/20 04:04:39;;;;;;;;;;;19.50;99.90;;;;;;5034260;28;20370;-72
2022/08/20 04:07:13;;;;;;;;;;;19.50;99.90;;;;;;5034650;28;20377;-72
2022/08/20 04:09:39;;;;;;;;;;;19.40;99.90;;;;;;5034970;28;20409;-72
2022/08/20 04:12:06;;;;;;;;;;;19.30;99.90;;;;;;5034528;28;20169;-73
2022/08/20 04:14:34;;;;;;;;;;;19.30;99.90;;;;;;5034699;28;19924;-72
2022/08/20 04:17:05;;;;;;;;;;;19.30;99.90;;;;;;5034111;28;19913;-73
2022/08/20 04:19:32;;;;;;;;;;;19.30;99.90;;;;;;5035205;28;19913;-73
2022/08/20 04:21:58;;;;;;;;;;;19.20;99.90;;;;;;5033980;28;19920;-73
2022/08/20 04:24:25;;;;;;;;;;;19.20;99.90;;;;;;5034846;28;19917;-72
2022/08/20 04:26:53;;;;;;;;;;;19.20;99.90;;;;;;5033859;28;19909;-73
2022/08/20 04:29:24;;;;;;;;;;;19.20;99.90;;;;;;5034637;28;19913;-72
2022/08/20 04:31:51;;;;;;;;;;;19.20;99.90;;;;;;5034239;28;19920;-72
2022/08/20 04:34:18;;;;;;;;;;;19.30;99.90;;;;;;5034488;28;19910;-72
2022/08/20 04:36:46;;;;;;;;;;;19.30;99.90;;;;;;5034467;28;19940;-72
2022/08/20 04:39:13;;;;;;;;;;;19.30;99.90;;;;;;5034799;28;20255;-72
2022/08/20 04:41:39;;;;;;;;;;;19.30;99.90;;;;;;5034181;28;19909;-73
2022/08/20 04:44:05;;;;;;;;;;;19.30;99.90;;;;;;5033505;28;19925;-72
2022/08/20 04:46:31;;;;;;;;;;;19.20;99.90;;;;;;5034469;28;20397;-73
2022/08/20 04:48:59;;;;;;;;;;;19.20;99.90;;;;;;5031930;28;19913;-73
2022/08/20 04:51:25;;;;;;;;;;;19.30;99.90;;;;;;5034023;28;19925;-72
2022/08/20 04:53:52;;;;;;;;;;;19.20;99.90;;;;;;5033348;28;20367;-73
2022/08/20 04:56:22;;;;;;;;;;;19.20;99.90;;;;;;5034496;28;19913;-73
2022/08/20 04:58:49;;;;;;;;;;;19.20;99.90;;;;;;5032627;28;19920;-77
2022/08/20 05:01:15;;;;;;;;;;;19.10;99.90;;;;;;5034579;28;19913;-73
2022/08/20 05:03:41;;;;;;;;;;;19.20;99.90;;;;;;5033817;28;19917;-73
2022/08/20 05:06:09;;;;;;;;;;;19.10;99.90;;;;;;5033546;28;20259;-72
2022/08/20 05:08:37;;;;;;;;;;;19.10;99.90;;;;;;5033862;28;19917;-72
2022/08/20 05:11:03;;;;;;;;;;;19.20;99.90;;;;;;5033167;28;19913;-72
2022/08/20 05:13:29;;;;;;;;;;;19.20;99.90;;;;;;5033395;28;20259;-73
2022/08/20 05:15:56;;;;;;;;;;;19.20;99.90;;;;;;5033155;28;19921;-73
2022/08/20 05:18:23;;;;;;;;;;;19.30;99.90;;;;;;5033690;28;19921;-72
2022/08/20 05:20:50;;;;;;;;;;;19.40;99.90;;;;;;5033276;28;20380;-76
2022/08/20 05:23:17;;;;;;;;;;;19.50;99.90;;;;;;5033336;28;19980;-73
2022/08/20 05:25:44;;;;;;;;;;;19.60;99.90;;;;;;5033366;28;19925;-73
2022/08/20 05:28:11;;;;;;;;;;;19.70;99.90;;;;;;5032321;28;19917;-73
2022/08/20 05:30:43;;;;;;;;;;;19.70;99.90;;;;;;5033215;28;19930;-72
2022/08/20 05:33:09;;;;;;;;;;;19.80;99.90;;;;;;5032613;28;19917;-72
2022/08/20 05:35:37;;;;;;;;;;;19.80;99.90;;;;;;5031700;28;19917;-72
2022/08/20 05:38:04;;;;;;;;;;;19.90;99.90;;;;;;5032907;28;19920;-72
2022/08/20 05:40:30;;;;;;;;;;;19.90;99.90;;;;;;5031993;28;19913;-73
2022/08/20 05:42:56;;;;;;;;;;;20.00;99.90;;;;;;5032477;28;19925;-73
2022/08/20 05:45:22;;;;;;;;;;;20.00;99.90;;;;;;5033235;28;19925;-73
2022/08/20 05:47:48;;;;;;;;;;;20.00;99.90;;;;;;5033031;28;19917;-72
2022/08/20 05:50:15;;;;;;;;;;;20.10;99.90;;;;;;5032444;28;19920;-72
2022/08/20 05:52:41;;;;;;;;;;;20.10;99.90;;;;;;5033372;28;19913;-73
2022/08/20 05:55:09;;;;;;;;;;;20.10;99.90;;;;;;5032228;28;20389;-73
2022/08/20 05:57:35;;;;;;;;;;;20.20;99.90;;;;;;5032907;28;19914;-72
2022/08/20 06:00:04;;;;;;;;;;;20.20;99.90;;;;;;5032185;28;20293;-73
2022/08/20 06:05:22;;;;;;;;;;;20.40;99.90;;;;;;5033237;28;19917;-73
2022/08/20 06:07:49;;;;;;;;;;;20.70;99.90;;;;;;5032868;28;19909;-72
2022/08/20 06:10:16;;;;;;;;;;;20.90;99.90;;;;;;5032237;28;19917;-73
2022/08/20 06:12:44;;;;;;;;;;;21.10;99.90;;;;;;5032194;28;19921;-72
2022/08/20 06:15:11;;;;;;;;;;;21.20;99.90;;;;;;5031965;28;20317;-73
2022/08/20 06:17:38;;;;;;;;;;;21.20;99.90;;;;;;5032816;28;20359;-73
2022/08/20 06:20:06;;;;;;;;;;;21.20;99.90;;;;;;5032172;28;20298;-73
2022/08/20 06:22:32;;;;;;;;;;;21.40;99.90;;;;;;5032380;28;19932;-73
2022/08/20 06:24:59;;;;;;;;;;;21.30;99.90;;;;;;5032091;28;20366;-73
2022/08/20 06:27:25;;;;;;;;;;;21.00;99.90;;;;;;5031735;28;19913;-73
2022/08/20 06:29:52;;;;;;;;;;;20.90;99.90;;;;;;5032495;28;19977;-73
2022/08/20 06:32:20;;;;;;;;;;;20.80;99.90;;;;;;5032203;28;19919;-72
2022/08/20 06:34:47;;;;;;;;;;;20.70;99.90;;;;;;5032181;28;19920;-72
2022/08/20 06:37:14;;;;;;;;;;;20.80;99.90;;;;;;5031516;28;19920;-73
2022/08/20 06:39:41;;;;;;;;;;;20.80;99.90;;;;;;5032593;28;19914;-73
2022/08/20 06:42:07;;;;;;;;;;;20.80;99.90;;;;;;5031940;28;19913;-73
2022/08/20 06:44:33;;;;;;;;;;;20.80;99.90;;;;;;5031778;28;20007;-74
2022/08/20 06:47:00;;;;;;;;;;;20.80;99.90;;;;;;5031597;28;19924;-73
2022/08/20 06:49:26;;;;;;;;;;;20.80;99.90;;;;;;5032099;28;19917;-72
2022/08/20 06:51:52;;;;;;;;;;;20.90;99.90;;;;;;5032300;28;20370;-72
2022/08/20 06:54:18;;;;;;;;;;;20.90;99.90;;;;;;5031724;28;20003;-72
2022/08/20 06:56:44;;;;;;;;;;;20.90;99.90;;;;;;5032363;28;20349;-72
2022/08/20 06:59:10;;;;;;;;;;;21.00;99.90;;;;;;5031329;28;19921;-72
2022/08/20 07:01:36;;;;;;;;;;;21.10;99.90;;;;;;5032209;28;19909;-72
2022/08/20 07:04:04;;;;;;;;;;;21.00;99.90;;;;;;5031461;28;19917;-71
2022/08/20 07:06:30;;;;;;;;;;;21.30;99.90;;;;;;5032340;28;20370;-72
2022/08/20 07:08:56;;;;;;;;;;;21.40;99.90;;;;;;5032005;28;19999;-75
2022/08/20 07:11:22;;;;;;;;;;;21.50;99.90;;;;;;5046872;28;19913;-72
2022/08/20 07:13:48;;;;;;;;;;;21.60;99.90;;;;;;5032133;28;19924;-72
2022/08/20 07:16:14;;;;;;;;;;;21.60;99.90;;;;;;5031736;28;20265;-73
2022/08/20 07:18:40;;;;;;;;;;;21.60;99.90;;;;;;5032198;28;19916;-72
2022/08/20 07:21:07;;;;;;;;;;;21.80;99.90;;;;;;5031125;28;19920;-72
2022/08/20 07:23:33;;;;;;;;;;;21.90;99.90;;;;;;5032171;28;20373;-72
2022/08/20 07:25:59;;;;;;;;;;;22.00;99.90;;;;;;5031362;28;19917;-72
2022/08/20 07:28:30;;;;;;;;;;;22.10;99.90;;;;;;5031818;28;19920;-72
2022/08/20 07:33:42;;;;;;;;;;;21.80;99.90;;;;;;5031996;28;19913;-72
2022/08/20 07:36:09;;;;;;;;;;;21.70;99.90;;;;;;5031230;28;19931;-72
2022/08/20 07:38:35;;;;;;;;;;;21.60;99.90;;;;;;5031563;28;19913;-72
2022/08/20 07:41:04;;;;;;;;;;;21.60;99.90;;;;;;5033573;28;20358;-72
2022/08/20 07:43:30;;;;;;;;;;;21.60;99.90;;;;;;5035078;28;19921;-72
2022/08/20 07:45:59;;;;;;;;;;;21.60;99.90;;;;;;5035509;28;19924;-73
2022/08/20 07:48:27;;;;;;;;;;;21.60;99.90;;;;;;5035299;28;19913;-72
2022/08/20 07:50:54;;;;;;;;;;;21.80;99.90;;;;;;5035614;28;20286;-72
2022/08/20 07:53:20;;;;;;;;;;;22.00;99.90;;;;;;5034453;28;20240;-73
2022/08/20 07:55:46;;;;;;;;;;;22.00;99.90;;;;;;5035392;28;19936;-72
2022/08/20 07:58:14;;;;;;;;;;;22.30;99.90;;;;;;5034814;28;19913;-71
2022/08/20 08:00:41;;;;;;;;;;;22.60;99.90;;;;;;5035201;28;19913;-72
2022/08/20 08:03:08;;;;;;;;;;;23.10;99.90;;;;;;5034728;28;20381;-72
2022/08/20 08:05:37;;;;;;;;;;;23.80;99.90;;;;;;5034871;28;19917;-72
2022/08/20 08:08:06;;;;;;;;;;;24.70;97.50;;;;;;5034441;28;20394;-73
2022/08/20 08:10:34;;;;;;;;;;;24.40;97.80;;;;;;5035015;28;20354;-72
2022/08/20 08:13:02;;;;;;;;;;;23.90;98.00;;;;;;5034811;28;19932;-76
2022/08/20 08:15:31;;;;;;;;;;;23.20;99.90;;;;;;5034729;28;19913;-72
2022/08/20 08:18:04;;;;;;;;;;;22.80;99.90;;;;;;5034699;28;19913;-73
2022/08/20 08:20:30;;;;;;;;;;;22.70;99.90;;;;;;5034730;28;19913;-73
2022/08/20 08:22:57;;;;;;;;;;;22.60;99.90;;;;;;5034845;28;19921;-73
2022/08/20 08:25:23;;;;;;;;;;;22.60;99.90;;;;;;5034124;28;19924;-73
2022/08/20 08:27:49;;;;;;;;;;;22.70;99.90;;;;;;5035186;28;19909;-73
2022/08/20 08:30:15;;;;;;;;;;;23.10;99.90;;;;;;5033842;28;20401;-73
2022/08/20 08:33:26;;;;;;;;;;;23.50;99.50;;;;;;5034479;28;19910;-72
2022/08/20 08:35:31;;;;;;;;;;;23.80;98.30;;;;;;5034997;28;19913;-72
2022/08/20 08:38:01;;;;;;;;;;;23.70;98.20;;;;;;5034413;28;20290;-72
2022/08/20 08:40:28;;;;;;;;;;;23.70;97.70;;;;;;5034123;28;19920;-72
2022/08/20 08:42:56;;;;;;;;;;;23.60;97.90;;;;;;5034138;28;19918;-72
2022/08/20 08:45:26;;;;;;;;;;;23.50;98.00;;;;;;5033775;28;19992;-73
2022/08/20 08:47:53;;;;;;;;;;;23.10;99.90;;;;;;5034161;28;19914;-71
2022/08/20 08:50:24;;;;;;;;;;;22.20;99.90;;;;;;5033513;28;19914;-72
2022/08/20 08:52:52;;;;;;;;;;;21.90;99.90;;;;;;5034043;28;20319;-71
2022/08/20 08:55:19;;;;;;;;;;;21.90;99.90;;;;;;5033875;28;20365;-71
2022/08/20 08:57:45;;;;;;;;;;;21.90;99.90;;;;;;5034133;28;19914;-72
2022/08/20 09:00:14;;;;;;;;;;;21.90;99.90;;;;;;5033735;28;19909;-71
2022/08/20 09:02:51;;;;;;;;;;;21.70;99.90;;;;;;5034341;28;19928;-72
2022/08/20 09:05:19;;;;;;;;;;;21.60;99.90;;;;;;5033406;28;19928;-72
2022/08/20 09:07:48;;;;;;;;;;;21.70;99.90;;;;;;5033966;28;20044;-72
2022/08/20 09:10:15;;;;;;;;;;;21.90;99.90;;;;;;5033521;28;19920;-73
2022/08/20 09:12:43;;;;;;;;;;;22.00;99.90;;;;;;5033434;28;19920;-72
2022/08/20 09:15:09;;;;;;;;;;;22.10;99.90;;;;;;5033051;28;19924;-72
2022/08/20 09:17:35;;;;;;;;;;;22.30;99.90;;;;;;5032499;28;19909;-72
2022/08/20 09:20:02;;;;;;;;;;;22.00;99.90;;;;;;5033504;28;19920;-72
2022/08/20 09:22:29;;;;;;;;;;;22.00;99.90;;;;;;5032993;28;19917;-71
2022/08/20 09:24:55;;;;;;;;;;;21.90;99.90;;;;;;5033390;28;20374;-73
2022/08/20 09:27:21;;;;;;;;;;;21.60;99.90;;;;;;5032762;28;19917;-72
2022/08/20 09:29:47;;;;;;;;;;;21.40;99.90;;;;;;5033680;28;19949;-72
2022/08/20 09:32:18;;;;;;;;;;;21.20;99.90;;;;;;5033076;28;19920;-73
2022/08/20 09:34:46;;;;;;;;;;;21.10;99.90;;;;;;5032881;28;19920;-72
2022/08/20 09:37:12;;;;;;;;;;;21.20;99.90;;;;;;5032849;28;19913;-72
2022/08/20 09:39:38;;;;;;;;;;;21.30;99.90;;;;;;5033250;28;19913;-72
2022/08/20 09:42:06;;;;;;;;;;;21.40;99.90;;;;;;5033313;28;19913;-72
2022/08/20 09:44:32;;;;;;;;;;;21.50;99.90;;;;;;5032461;28;19921;-73
2022/08/20 09:46:58;;;;;;;;;;;21.80;99.90;;;;;;5033165;28;19923;-72
2022/08/20 09:49:24;;;;;;;;;;;22.00;99.90;;;;;;5032331;28;20282;-72
2022/08/20 09:51:50;;;;;;;;;;;22.10;99.90;;;;;;5048169;28;19909;-73
2022/08/20 09:54:16;;;;;;;;;;;22.80;99.90;;;;;;5032367;28;20400;-73
2022/08/20 09:56:42;;;;;;;;;;;22.90;99.90;;;;;;5032778;28;19923;-73
2022/08/20 09:59:08;;;;;;;;;;;22.80;99.90;;;;;;5031139;28;19913;-73
2022/08/20 10:01:34;;;;;;;;;;;22.70;99.90;;;;;;5032672;28;19913;-72
2022/08/20 10:04:00;;;;;;;;;;;22.50;99.90;;;;;;5032153;28;19917;-73
2022/08/20 10:06:26;;;;;;;;;;;22.40;99.90;;;;;;5032223;28;20159;-73
2022/08/20 10:08:52;;;;;;;;;;;22.40;99.90;;;;;;5032831;28;19910;-72
2022/08/20 10:11:18;;;;;;;;;;;22.60;99.90;;;;;;5032106;28;19913;-73
2022/08/20 10:13:44;;;;;;;;;;;22.80;99.90;;;;;;5033167;28;19917;-72
2022/08/20 10:16:10;;;;;;;;;;;23.20;99.90;;;;;;5030479;28;19920;-73
2022/08/20 10:18:36;;;;;;;;;;;23.60;99.90;;;;;;5032713;28;19917;-72
2022/08/20 10:21:02;;;;;;;;;;;23.70;99.90;;;;;;5032563;28;20004;-73
2022/08/20 10:23:28;;;;;;;;;;;23.60;99.90;;;;;;5031785;28;19921;-73
2022/08/20 10:25:54;;;;;;;;;;;23.30;99.90;;;;;;5031248;28;19917;-72
2022/08/20 10:28:20;;;;;;;;;;;23.00;99.90;;;;;;5032089;28;19915;-72
2022/08/20 10:30:46;;;;;;;;;;;23.20;99.90;;;;;;5032238;28;19913;-73
2022/08/20 10:33:12;;;;;;;;;;;23.40;99.90;;;;;;5031811;28;19913;-73
2022/08/20 10:35:38;;;;;;;;;;;23.50;99.90;;;;;;5032384;28;20342;-72
2022/08/20 10:38:04;;;;;;;;;;;23.90;99.90;;;;;;5032212;28;20013;-72
2022/08/20 10:40:30;;;;;;;;;;;24.20;99.90;;;;;;5031179;28;19948;-73
2022/08/20 10:42:56;;;;;;;;;;;24.40;99.90;;;;;;5032088;28;20404;-72
2022/08/20 10:45:24;;;;;;;;;;;24.80;97.40;;;;;;5031342;28;19918;-73
2022/08/20 10:47:50;;;;;;;;;;;24.80;97.70;;;;;;5032210;28;19913;-72
2022/08/20 10:50:18;;;;;;;;;;;25.30;96.50;;;;;;5031323;28;19943;-73
2022/08/20 10:52:45;;;;;;;;;;;25.50;95.70;;;;;;5031890;28;19920;-72
2022/08/20 10:55:11;;;;;;;;;;;25.00;96.60;;;;;;5031829;28;19920;-72
2022/08/20 10:57:38;;;;;;;;;;;24.70;98.40;;;;;;5032458;28;19918;-71
2022/08/20 11:00:06;;;;;;;;;;;24.70;99.10;;;;;;5032368;28;19913;-71
2022/08/20 11:02:32;;;;;;;;;;;24.70;98.90;;;;;;5031634;28;20281;-71
2022/08/20 11:04:58;;;;;;;;;;;24.90;97.50;;;;;;5032068;28;19917;-72
2022/08/20 11:07:28;;;;;;;;;;;24.80;96.80;;;;;;5031539;28;19956;-71
2022/08/20 11:09:55;;;;;;;;;;;24.50;96.70;;;;;;5031826;28;19913;-72
2022/08/20 11:12:21;;;;;;;;;;;24.10;97.00;;;;;;5031059;28;19921;-72
2022/08/20 11:14:47;;;;;;;;;;;24.20;96.40;;;;;;5034461;28;19917;-72
2022/08/20 11:17:17;;;;;;;;;;;24.20;96.50;;;;;;5035128;28;19913;-72
2022/08/20 11:19:43;;;;;;;;;;;24.50;96.60;;;;;;5035891;28;19913;-72
2022/08/20 11:22:10;;;;;;;;;;;24.40;95.90;;;;;;5035062;28;19913;-72
2022/08/20 11:24:36;;;;;;;;;;;24.60;96.10;;;;;;5035865;28;19928;-72
2022/08/20 11:27:04;;;;;;;;;;;25.20;95.30;;;;;;5035794;28;19917;-72
2022/08/20 11:29:30;;;;;;;;;;;25.40;93.60;;;;;;5035264;28;20365;-72
2022/08/20 11:31:56;;;;;;;;;;;25.00;94.40;;;;;;5035334;28;19917;-73
2022/08/20 11:34:22;;;;;;;;;;;25.00;94.80;;;;;;5035095;28;20410;-73
2022/08/20 11:36:48;;;;;;;;;;;25.10;93.80;;;;;;5035710;28;19920;-72
2022/08/20 11:39:14;;;;;;;;;;;25.10;93.20;;;;;;5035137;28;19920;-73
2022/08/20 11:41:40;;;;;;;;;;;25.20;92.60;;;;;;5035197;28;19909;-72
2022/08/20 11:44:06;;;;;;;;;;;24.90;93.20;;;;;;5035094;28;19925;-72
2022/08/20 11:46:32;;;;;;;;;;;24.80;93.40;;;;;;5034614;28;20133;-73
2022/08/20 11:48:58;;;;;;;;;;;24.60;93.60;;;;;;5034760;28;19913;-72
2022/08/20 11:51:24;;;;;;;;;;;24.70;93.60;;;;;;5034201;28;20309;-72
2022/08/20 11:53:50;;;;;;;;;;;25.00;93.10;;;;;;5035041;28;19913;-72
2022/08/20 11:56:18;;;;;;;;;;;25.40;91.80;;;;;;5034476;28;20016;-72
2022/08/20 11:58:44;;;;;;;;;;;25.60;91.50;;;;;;5035033;28;20362;-72
2022/08/20 12:01:11;;;;;;;;;;;25.70;92.20;;;;;;5035433;28;20412;-73
2022/08/20 12:03:37;;;;;;;;;;;25.70;91.80;;;;;;5034119;28;19925;-72
2022/08/20 12:06:03;;;;;;;;;;;25.90;90.90;;;;;;5034955;28;19936;-72
2022/08/20 12:08:29;;;;;;;;;;;26.00;90.40;;;;;;5034279;28;20381;-72
2022/08/20 12:10:56;;;;;;;;;;;25.90;90.10;;;;;;5035203;28;19913;-72
2022/08/20 12:13:22;;;;;;;;;;;25.90;89.10;;;;;;5034474;28;19932;-72
2022/08/20 12:15:49;;;;;;;;;;;26.00;88.40;;;;;;5035104;28;19913;-72
2022/08/20 12:18:15;;;;;;;;;;;26.30;86.50;;;;;;5034129;28;20275;-75
2022/08/20 12:20:41;;;;;;;;;;;26.40;73.60;;;;;;5033265;28;19920;-71
2022/08/20 12:23:07;;;;;;;;;;;26.60;73.30;;;;;;5034732;28;20252;-72
2022/08/20 12:25:33;;;;;;;;;;;26.60;68.40;;;;;;5032501;28;19918;-72
2022/08/20 12:27:59;;;;;;;;;;;26.30;69.10;;;;;;5034829;28;19924;-72
2022/08/20 12:30:25;;;;;;;;;;;26.00;67.30;;;;;;5033851;28;19913;-72
2022/08/20 12:32:51;;;;;;;;;;;25.80;67.40;;;;;;5034953;28;19909;-73
2022/08/20 12:35:18;;;;;;;;;;;25.90;65.90;;;;;;5033923;28;19913;-73
2022/08/20 12:37:44;;;;;;;;;;;25.90;67.30;;;;;;5034380;28;19920;-72
2022/08/20 12:40:13;;;;;;;;;;;26.00;65.30;;;;;;5034427;28;19913;-72
2022/08/20 12:42:39;;;;;;;;;;;26.10;64.30;;;;;;5033559;28;19917;-72
2022/08/20 12:45:05;;;;;;;;;;;26.10;65.00;;;;;;5034116;28;19921;-73
2022/08/20 12:47:33;;;;;;;;;;;26.10;61.80;;;;;;5032451;28;19928;-73
2022/08/20 12:50:01;;;;;;;;;;;25.90;62.80;;;;;;5034545;28;19920;-72
2022/08/20 12:52:27;;;;;;;;;;;25.80;62.50;;;;;;5033815;28;19917;-72
2022/08/20 12:54:54;;;;;;;;;;;25.70;61.40;;;;;;5033951;28;19914;-72
2022/08/20 12:57:33;;;;;;;;;;;25.70;62.10;;;;;;5033372;28;19913;-73
2022/08/20 13:00:06;;;;;;;;;;;25.80;61.60;;;;;;5032794;28;19920;-73
2022/08/20 13:02:32;;;;;;;;;;;25.70;59.70;;;;;;5033377;28;19920;-72
2022/08/20 13:04:58;;;;;;;;;;;26.30;60.30;;;;;;5033757;28;19917;-73
2022/08/20 13:07:24;;;;;;;;;;;26.80;57.50;;;;;;5033001;28;19920;-73
2022/08/20 13:09:50;;;;;;;;;;;27.00;56.80;;;;;;5033911;28;19920;-73
2022/08/20 13:12:16;;;;;;;;;;;26.80;55.70;;;;;;5033922;28;19925;-72
2022/08/20 13:14:42;;;;;;;;;;;26.50;56.90;;;;;;5033341;28;19917;-72
2022/08/20 13:17:08;;;;;;;;;;;26.40;57.30;;;;;;5033885;28;19909;-72
2022/08/20 13:19:35;;;;;;;;;;;26.60;56.50;;;;;;5033000;28;19920;-72
2022/08/20 13:22:01;;;;;;;;;;;26.50;54.60;;;;;;5033490;28;19909;-72
2022/08/20 13:24:27;;;;;;;;;;;26.60;55.70;;;;;;5032734;28;19917;-72
2022/08/20 13:27:01;;;;;;;;;;;26.60;55.50;;;;;;5033816;28;19918;-72
2022/08/20 13:29:27;;;;;;;;;;;26.90;54.80;;;;;;5032891;28;19920;-73
2022/08/20 13:31:54;;;;;;;;;;;27.10;53.90;;;;;;5033575;28;19925;-72
2022/08/20 13:34:20;;;;;;;;;;;27.00;54.80;;;;;;5032719;28;19921;-73
2022/08/20 13:36:46;;;;;;;;;;;27.00;51.50;;;;;;5033258;28;19913;-73
2022/08/20 13:39:12;;;;;;;;;;;26.80;51.00;;;;;;5033285;28;19935;-72
2022/08/20 13:41:38;;;;;;;;;;;26.90;50.20;;;;;;5032925;28;19913;-72
2022/08/20 13:44:04;;;;;;;;;;;27.40;48.00;;;;;;5033307;28;19921;-72
2022/08/20 13:46:30;;;;;;;;;;;27.70;47.60;;;;;;5032742;28;20366;-72
2022/08/20 13:48:56;;;;;;;;;;;27.80;46.90;;;;;;5032984;28;19913;-72
2022/08/20 13:51:22;;;;;;;;;;;28.00;44.80;;;;;;5032247;28;19913;-72
2022/08/20 13:53:48;;;;;;;;;;;28.10;43.20;;;;;;5033272;28;20008;-73
2022/08/20 13:56:14;;;;;;;;;;;28.10;43.40;;;;;;5032926;28;20282;-73
2022/08/20 13:58:40;;;;;;;;;;;28.30;41.40;;;;;;5032262;28;20129;-74
2022/08/20 14:01:06;;;;;;;;;;;28.50;40.60;;;;;;5032771;28;19917;-73
2022/08/20 14:03:33;;;;;;;;;;;28.60;40.50;;;;;;5032140;28;19909;-73
2022/08/20 14:06:00;;;;;;;;;;;28.70;39.90;;;;;;5033047;28;19921;-73
2022/08/20 14:08:27;;;;;;;;;;;28.50;40.80;;;;;;5032116;28;20243;-74
2022/08/20 14:10:53;;;;;;;;;;;28.50;40.60;;;;;;5032903;28;20389;-73
2022/08/20 14:13:20;;;;;;;;;;;28.60;40.20;;;;;;5032980;28;19932;-73
2022/08/20 14:15:46;;;;;;;;;;;28.80;40.70;;;;;;5031818;28;19914;-73
2022/08/20 14:18:13;;;;;;;;;;;28.90;39.60;;;;;;5032323;28;19928;-73
2022/08/20 14:20:39;;;;;;;;;;;28.90;40.30;;;;;;5032303;28;19920;-73
2022/08/20 14:23:05;;;;;;;;;;;28.80;39.80;;;;;;5032492;28;19913;-73